sensor_id;sensor_type;location;lat;lon;timestamp;pressure;altitude;pressure_sealevel;temperature;humidity
15694;BME280;7947;48.834;9.132;2023-03-12T00:00:42;97853.88;;;1.50;64.59
15694;BME280;7947;48.834;9.132;2023-03-12T00:03:45;97852.28;;;1.49;64.66
15694;BME280;7947;48.834;9.132;2023-03-12T00:06:49;97847.19;;;1.47;65.49
15694;BME280;7947;48.834;9.132;2023-03-12T00:09:53;97861.81;;;1.50;65.59
15694;BME280;7947;48.834;9.132;2023-03-12T00:12:56;97859.63;;;1.47;65.16
15694;BME280;7947;48.834;9.132;2023-03-12T00:16:03;97865.81;;;1.41;65.30
15694;BME280;7947;48.834;9.132;2023-03-12T00:19:06;97865.44;;;1.37;65.53
15694;BME280;7947;48.834;9.132;2023-03-12T00:22:09;97856.47;;;1.38;65.30
15694;BME280;7947;48.834;9.132;2023-03-12T00:25:15;97852.25;;;1.37;65.49
15694;BME280;7947;48.834;9.132;2023-03-12T00:28:18;97859.34;;;1.37;65.19
15694;BME280;7947;48.834;9.132;2023-03-12T00:31:22;97859.00;;;1.15;65.38
15694;BME280;7947;48.834;9.132;2023-03-12T00:34:26;97859.81;;;1.16;66.40
15694;BME280;7947;48.834;9.132;2023-03-12T00:37:29;97858.53;;;1.18;65.43
15694;BME280;7947;48.834;9.132;2023-03-12T00:40:35;97854.91;;;1.19;65.81
15694;BME280;7947;48.834;9.132;2023-03-12T00:43:39;97853.94;;;1.14;65.26
15694;BME280;7947;48.834;9.132;2023-03-12T00:46:42;97850.72;;;1.12;65.89
15694;BME280;7947;48.834;9.132;2023-03-12T00:49:45;97842.44;;;1.08;65.83
15694;BME280;7947;48.834;9.132;2023-03-12T00:52:48;97846.56;;;1.04;66.20
15694;BME280;7947;48.834;9.132;2023-03-12T00:55:53;97855.34;;;0.98;66.25
15694;BME280;7947;48.834;9.132;2023-03-12T00:58:56;97849.47;;;0.96;66.58
15694;BME280;7947;48.834;9.132;2023-03-12T01:01:59;97846.84;;;0.96;67.09
15694;BME280;7947;48.834;9.132;2023-03-12T01:05:02;97849.19;;;1.04;67.53
15694;BME280;7947;48.834;9.132;2023-03-12T01:08:06;97847.13;;;1.06;68.37
15694;BME280;7947;48.834;9.132;2023-03-12T01:11:13;97843.91;;;1.04;68.05
15694;BME280;7947;48.834;9.132;2023-03-12T01:14:16;97848.09;;;1.12;68.29
15694;BME280;7947;48.834;9.132;2023-03-12T01:17:19;97844.03;;;1.09;68.51
15694;BME280;7947;48.834;9.132;2023-03-12T01:20:22;97842.34;;;1.15;68.63
15694;BME280;7947;48.834;9.132;2023-03-12T01:23:25;97844.75;;;1.16;68.17
15694;BME280;7947;48.834;9.132;2023-03-12T01:26:29;97849.03;;;1.17;68.33
15694;BME280;7947;48.834;9.132;2023-03-12T01:29:32;97841.09;;;1.17;68.69
15694;BME280;7947;48.834;9.132;2023-03-12T01:32:35;97845.94;;;1.20;69.17
15694;BME280;7947;48.834;9.132;2023-03-12T01:35:39;97844.47;;;1.24;69.07
15694;BME280;7947;48.834;9.132;2023-03-12T01:38:43;97846.44;;;1.29;68.86
15694;BME280;7947;48.834;9.132;2023-03-12T01:41:47;97848.03;;;1.30;69.28
15694;BME280;7947;48.834;9.132;2023-03-12T01:44:51;97851.19;;;1.38;69.40
15694;BME280;7947;48.834;9.132;2023-03-12T01:47:55;97852.38;;;1.42;69.90
15694;BME280;7947;48.834;9.132;2023-03-12T01:50:58;97847.94;;;1.54;70.08
15694;BME280;7947;48.834;9.132;2023-03-12T01:54:05;97846.00;;;1.61;69.95
15694;BME280;7947;48.834;9.132;2023-03-12T01:57:13;97842.38;;;1.74;69.67
15694;BME280;7947;48.834;9.132;2023-03-12T02:00:19;97844.31;;;1.78;69.67
15694;BME280;7947;48.834;9.132;2023-03-12T02:03:23;97844.47;;;1.83;69.58
15694;BME280;7947;48.834;9.132;2023-03-12T02:06:32;97845.66;;;1.99;69.18
15694;BME280;7947;48.834;9.132;2023-03-12T02:09:40;97840.50;;;2.04;69.18
15694;BME280;7947;48.834;9.132;2023-03-12T02:12:44;97841.56;;;2.15;68.43
15694;BME280;7947;48.834;9.132;2023-03-12T02:15:47;97839.81;;;2.09;68.73
15694;BME280;7947;48.834;9.132;2023-03-12T02:18:51;97838.22;;;2.19;68.67
15694;BME280;7947;48.834;9.132;2023-03-12T02:21:56;97836.72;;;2.23;68.57
15694;BME280;7947;48.834;9.132;2023-03-12T02:25:03;97829.94;;;2.27;68.42
15694;BME280;7947;48.834;9.132;2023-03-12T02:28:13;97829.69;;;2.17;67.92
15694;BME280;7947;48.834;9.132;2023-03-12T02:31:18;97832.47;;;2.11;68.11
15694;BME280;7947;48.834;9.132;2023-03-12T02:34:22;97831.66;;;2.22;68.18
15694;BME280;7947;48.834;9.132;2023-03-12T02:37:25;97839.72;;;2.27;68.38
15694;BME280;7947;48.834;9.132;2023-03-12T02:40:32;97824.41;;;2.29;67.79
15694;BME280;7947;48.834;9.132;2023-03-12T02:43:39;97830.03;;;2.21;67.70
15694;BME280;7947;48.834;9.132;2023-03-12T02:46:46;97831.88;;;2.09;67.94
15694;BME280;7947;48.834;9.132;2023-03-12T02:49:51;97836.03;;;2.16;68.25
15694;BME280;7947;48.834;9.132;2023-03-12T02:52:54;97833.94;;;2.07;67.88
15694;BME280;7947;48.834;9.132;2023-03-12T02:55:57;97831.66;;;2.10;68.69
15694;BME280;7947;48.834;9.132;2023-03-12T02:59:01;97829.00;;;2.10;68.67
15694;BME280;7947;48.834;9.132;2023-03-12T03:02:05;97836.94;;;2.10;68.62
15694;BME280;7947;48.834;9.132;2023-03-12T03:05:10;97832.00;;;2.14;68.23
15694;BME280;7947;48.834;9.132;2023-03-12T03:08:13;97826.59;;;2.09;67.81
15694;BME280;7947;48.834;9.132;2023-03-12T03:11:16;97825.44;;;2.05;67.66
15694;BME280;7947;48.834;9.132;2023-03-12T03:14:21;97813.34;;;1.97;68.57
15694;BME280;7947;48.834;9.132;2023-03-12T03:17:24;97814.63;;;2.06;68.88
15694;BME280;7947;48.834;9.132;2023-03-12T03:20:27;97805.19;;;2.10;68.93
15694;BME280;7947;48.834;9.132;2023-03-12T03:23:30;97806.22;;;2.09;68.53
15694;BME280;7947;48.834;9.132;2023-03-12T03:26:33;97800.84;;;2.16;68.63
15694;BME280;7947;48.834;9.132;2023-03-12T03:29:37;97799.81;;;2.17;68.30
15694;BME280;7947;48.834;9.132;2023-03-12T03:32:41;97808.44;;;2.12;68.47
15694;BME280;7947;48.834;9.132;2023-03-12T03:35:44;97809.69;;;2.10;68.63
15694;BME280;7947;48.834;9.132;2023-03-12T03:38:47;97807.03;;;2.10;69.27
15694;BME280;7947;48.834;9.132;2023-03-12T03:41:51;97807.50;;;2.07;69.55
15694;BME280;7947;48.834;9.132;2023-03-12T03:44:55;97800.59;;;2.06;69.33
15694;BME280;7947;48.834;9.132;2023-03-12T03:47:58;97807.16;;;2.03;69.82
15694;BME280;7947;48.834;9.132;2023-03-12T03:51:02;97804.84;;;2.07;70.28
15694;BME280;7947;48.834;9.132;2023-03-12T03:54:05;97807.50;;;2.07;69.44
15694;BME280;7947;48.834;9.132;2023-03-12T03:57:08;97807.84;;;2.10;70.13
15694;BME280;7947;48.834;9.132;2023-03-12T04:00:13;97801.75;;;2.10;70.05
15694;BME280;7947;48.834;9.132;2023-03-12T04:03:18;97790.59;;;2.08;70.58
15694;BME280;7947;48.834;9.132;2023-03-12T04:06:21;97784.16;;;2.15;70.81
15694;BME280;7947;48.834;9.132;2023-03-12T04:09:24;97781.63;;;2.09;70.42
15694;BME280;7947;48.834;9.132;2023-03-12T04:12:27;97780.16;;;2.13;70.31
15694;BME280;7947;48.834;9.132;2023-03-12T04:15:32;97786.47;;;2.23;69.87
15694;BME280;7947;48.834;9.132;2023-03-12T04:18:35;97794.16;;;2.25;69.75
15694;BME280;7947;48.834;9.132;2023-03-12T04:21:38;97783.56;;;2.25;69.89
15694;BME280;7947;48.834;9.132;2023-03-12T04:24:41;97791.66;;;2.30;69.87
15694;BME280;7947;48.834;9.132;2023-03-12T04:27:43;97794.97;;;2.25;70.40
15694;BME280;7947;48.834;9.132;2023-03-12T04:30:54;97794.28;;;2.30;70.41
15694;BME280;7947;48.834;9.132;2023-03-12T04:34:00;97794.06;;;2.31;70.16
15694;BME280;7947;48.834;9.132;2023-03-12T04:37:03;97798.66;;;2.36;70.12
15694;BME280;7947;48.834;9.132;2023-03-12T04:40:06;97787.75;;;2.44;70.67
15694;BME280;7947;48.834;9.132;2023-03-12T04:43:10;97792.56;;;2.47;69.96
15694;BME280;7947;48.834;9.132;2023-03-12T04:46:14;97795.66;;;2.55;69.94
15694;BME280;7947;48.834;9.132;2023-03-12T04:49:17;97789.09;;;2.58;70.00
15694;BME280;7947;48.834;9.132;2023-03-12T04:52:20;97792.44;;;2.65;69.99
15694;BME280;7947;48.834;9.132;2023-03-12T04:55:23;97781.81;;;2.77;69.35
15694;BME280;7947;48.834;9.132;2023-03-12T04:58:26;97776.75;;;2.75;69.36
15694;BME280;7947;48.834;9.132;2023-03-12T05:01:32;97784.09;;;2.73;69.10
15694;BME280;7947;48.834;9.132;2023-03-12T05:04:35;97781.81;;;2.77;69.23
15694;BME280;7947;48.834;9.132;2023-03-12T05:07:38;97789.53;;;2.78;69.63
15694;BME280;7947;48.834;9.132;2023-03-12T05:10:41;97779.03;;;2.83;69.50
15694;BME280;7947;48.834;9.132;2023-03-12T05:13:46;97773.84;;;2.88;69.74
15694;BME280;7947;48.834;9.132;2023-03-12T05:16:51;97778.00;;;2.84;69.69
15694;BME280;7947;48.834;9.132;2023-03-12T05:19:54;97783.06;;;2.86;69.70
15694;BME280;7947;48.834;9.132;2023-03-12T05:22:56;97775.59;;;2.83;70.03
15694;BME280;7947;48.834;9.132;2023-03-12T05:25:59;97781.22;;;2.86;69.84
15694;BME280;7947;48.834;9.132;2023-03-12T05:29:03;97785.03;;;2.90;69.31
15694;BME280;7947;48.834;9.132;2023-03-12T05:32:08;97777.16;;;2.95;69.77
15694;BME280;7947;48.834;9.132;2023-03-12T05:35:11;97779.25;;;2.93;69.65
15694;BME280;7947;48.834;9.132;2023-03-12T05:38:14;97780.28;;;2.92;69.13
15694;BME280;7947;48.834;9.132;2023-03-12T05:41:18;97779.31;;;2.98;69.53
15694;BME280;7947;48.834;9.132;2023-03-12T05:44:22;97774.84;;;2.99;70.32
15694;BME280;7947;48.834;9.132;2023-03-12T05:47:27;97795.44;;;3.08;70.06
15694;BME280;7947;48.834;9.132;2023-03-12T05:50:30;97797.25;;;3.19;69.66
15694;BME280;7947;48.834;9.132;2023-03-12T05:53:33;97795.63;;;3.18;69.93
15694;BME280;7947;48.834;9.132;2023-03-12T05:56:36;97799.91;;;3.19;69.77
15694;BME280;7947;48.834;9.132;2023-03-12T05:59:39;97795.50;;;3.25;70.56
15694;BME280;7947;48.834;9.132;2023-03-12T06:02:43;97798.56;;;3.33;71.62
15694;BME280;7947;48.834;9.132;2023-03-12T06:05:46;97794.72;;;3.41;72.89
15694;BME280;7947;48.834;9.132;2023-03-12T06:08:50;97792.19;;;3.46;72.83
15694;BME280;7947;48.834;9.132;2023-03-12T06:11:53;97790.34;;;3.46;73.31
15694;BME280;7947;48.834;9.132;2023-03-12T06:14:56;97786.25;;;3.55;73.24
15694;BME280;7947;48.834;9.132;2023-03-12T06:18:00;97785.94;;;3.52;73.41
15694;BME280;7947;48.834;9.132;2023-03-12T06:21:08;97785.44;;;3.38;73.49
15694;BME280;7947;48.834;9.132;2023-03-12T06:24:11;97790.16;;;3.36;73.95
15694;BME280;7947;48.834;9.132;2023-03-12T06:27:15;97779.78;;;3.35;74.02
15694;BME280;7947;48.834;9.132;2023-03-12T06:30:17;97778.09;;;3.29;74.78
15694;BME280;7947;48.834;9.132;2023-03-12T06:33:22;97774.06;;;3.26;75.29
15694;BME280;7947;48.834;9.132;2023-03-12T06:36:24;97772.22;;;3.27;75.70
15694;BME280;7947;48.834;9.132;2023-03-12T06:39:27;97766.69;;;3.28;77.03
15694;BME280;7947;48.834;9.132;2023-03-12T06:42:30;97770.16;;;3.29;76.80
15694;BME280;7947;48.834;9.132;2023-03-12T06:45:33;97763.22;;;3.28;76.78
15694;BME280;7947;48.834;9.132;2023-03-12T06:48:37;97762.91;;;3.24;78.20
15694;BME280;7947;48.834;9.132;2023-03-12T06:51:42;97756.47;;;3.20;78.71
15694;BME280;7947;48.834;9.132;2023-03-12T06:54:45;97766.50;;;3.18;80.20
15694;BME280;7947;48.834;9.132;2023-03-12T06:57:48;97775.09;;;3.25;79.66
15694;BME280;7947;48.834;9.132;2023-03-12T07:00:51;97779.13;;;3.28;79.79
15694;BME280;7947;48.834;9.132;2023-03-12T07:03:56;97782.59;;;3.28;80.29
15694;BME280;7947;48.834;9.132;2023-03-12T07:06:58;97770.94;;;3.29;80.34
15694;BME280;7947;48.834;9.132;2023-03-12T07:10:01;97775.91;;;3.26;81.43
15694;BME280;7947;48.834;9.132;2023-03-12T07:13:04;97772.06;;;3.33;81.91
15694;BME280;7947;48.834;9.132;2023-03-12T07:16:08;97770.09;;;3.40;83.36
15694;BME280;7947;48.834;9.132;2023-03-12T07:19:12;97775.34;;;3.52;83.66
15694;BME280;7947;48.834;9.132;2023-03-12T07:22:15;97770.88;;;3.69;83.58
15694;BME280;7947;48.834;9.132;2023-03-12T07:25:18;97783.06;;;3.70;82.89
15694;BME280;7947;48.834;9.132;2023-03-12T07:28:21;97786.53;;;3.71;83.15
15694;BME280;7947;48.834;9.132;2023-03-12T07:31:24;97792.56;;;3.83;83.57
15694;BME280;7947;48.834;9.132;2023-03-12T07:34:28;97787.84;;;3.85;83.19
15694;BME280;7947;48.834;9.132;2023-03-12T07:37:32;97787.91;;;3.90;83.15
15694;BME280;7947;48.834;9.132;2023-03-12T07:40:35;97787.25;;;3.99;83.53
15694;BME280;7947;48.834;9.132;2023-03-12T07:43:38;97781.41;;;4.14;83.08
15694;BME280;7947;48.834;9.132;2023-03-12T07:46:41;97783.00;;;4.31;82.46
15694;BME280;7947;48.834;9.132;2023-03-12T07:49:46;97782.97;;;4.48;82.32
15694;BME280;7947;48.834;9.132;2023-03-12T07:52:50;97778.78;;;4.52;81.39
15694;BME280;7947;48.834;9.132;2023-03-12T07:55:53;97778.06;;;4.56;81.07
15694;BME280;7947;48.834;9.132;2023-03-12T07:58:56;97789.25;;;4.58;81.72
15694;BME280;7947;48.834;9.132;2023-03-12T08:01:59;97788.00;;;4.66;81.81
15694;BME280;7947;48.834;9.132;2023-03-12T08:05:04;97787.34;;;4.76;82.31
15694;BME280;7947;48.834;9.132;2023-03-12T08:08:07;97790.38;;;4.84;82.34
15694;BME280;7947;48.834;9.132;2023-03-12T08:11:10;97787.09;;;4.77;82.07
15694;BME280;7947;48.834;9.132;2023-03-12T08:14:13;97790.97;;;4.70;82.74
15694;BME280;7947;48.834;9.132;2023-03-12T08:17:16;97790.47;;;4.73;83.13
15694;BME280;7947;48.834;9.132;2023-03-12T08:20:20;97786.03;;;4.56;83.03
15694;BME280;7947;48.834;9.132;2023-03-12T08:23:23;97800.03;;;4.52;82.72
15694;BME280;7947;48.834;9.132;2023-03-12T08:26:27;97794.56;;;4.42;83.69
15694;BME280;7947;48.834;9.132;2023-03-12T08:29:30;97793.44;;;4.38;83.81
15694;BME280;7947;48.834;9.132;2023-03-12T08:32:34;97800.06;;;4.35;85.73
15694;BME280;7947;48.834;9.132;2023-03-12T08:35:38;97794.97;;;4.34;85.85
15694;BME280;7947;48.834;9.132;2023-03-12T08:38:41;97805.13;;;4.37;86.54
15694;BME280;7947;48.834;9.132;2023-03-12T08:41:44;97806.56;;;4.44;86.22
15694;BME280;7947;48.834;9.132;2023-03-12T08:44:47;97791.56;;;4.55;87.42
15694;BME280;7947;48.834;9.132;2023-03-12T08:47:50;97794.91;;;4.67;87.46
15694;BME280;7947;48.834;9.132;2023-03-12T08:50:55;97811.31;;;4.81;87.97
15694;BME280;7947;48.834;9.132;2023-03-12T08:53:58;97801.06;;;4.89;87.67
15694;BME280;7947;48.834;9.132;2023-03-12T08:57:01;97801.22;;;4.99;86.27
15694;BME280;7947;48.834;9.132;2023-03-12T09:00:05;97789.56;;;5.05;85.37
15694;BME280;7947;48.834;9.132;2023-03-12T09:03:12;97788.34;;;5.13;86.14
15694;BME280;7947;48.834;9.132;2023-03-12T09:06:17;97786.03;;;5.21;85.79
15694;BME280;7947;48.834;9.132;2023-03-12T09:09:20;97789.06;;;5.30;85.76
15694;BME280;7947;48.834;9.132;2023-03-12T09:12:23;97787.53;;;5.34;86.11
15694;BME280;7947;48.834;9.132;2023-03-12T09:15:26;97791.63;;;5.46;86.24
15694;BME280;7947;48.834;9.132;2023-03-12T09:18:29;97782.22;;;5.61;85.12
15694;BME280;7947;48.834;9.132;2023-03-12T09:21:33;97791.41;;;5.75;85.59
15694;BME280;7947;48.834;9.132;2023-03-12T09:29:18;97793.53;;;6.04;85.49
15694;BME280;7947;48.834;9.132;2023-03-12T09:33:06;97788.56;;;6.13;85.83
15694;BME280;7947;48.834;9.132;2023-03-12T09:36:56;97793.97;;;6.23;85.20
15694;BME280;7947;48.834;9.132;2023-03-12T09:40:45;97799.41;;;6.38;85.53
15694;BME280;7947;48.834;9.132;2023-03-12T09:43:52;97800.78;;;6.46;85.54
15694;BME280;7947;48.834;9.132;2023-03-12T09:46:59;97798.41;;;6.49;85.86
15694;BME280;7947;48.834;9.132;2023-03-12T09:50:07;97802.44;;;6.57;86.21
15694;BME280;7947;48.834;9.132;2023-03-12T09:53:25;97796.91;;;6.63;86.91
15694;BME280;7947;48.834;9.132;2023-03-12T09:56:30;97796.16;;;6.68;86.60
15694;BME280;7947;48.834;9.132;2023-03-12T09:59:33;97797.22;;;6.72;86.50
15694;BME280;7947;48.834;9.132;2023-03-12T10:03:03;97802.59;;;6.82;86.56
15694;BME280;7947;48.834;9.132;2023-03-12T10:06:12;97801.84;;;6.91;86.64
15694;BME280;7947;48.834;9.132;2023-03-12T10:09:50;97808.06;;;7.07;87.20
15694;BME280;7947;48.834;9.132;2023-03-12T10:13:18;97801.19;;;7.21;86.83
15694;BME280;7947;48.834;9.132;2023-03-12T10:16:33;97798.31;;;7.38;87.31
15694;BME280;7947;48.834;9.132;2023-03-12T10:19:58;97805.03;;;7.55;86.83
15694;BME280;7947;48.834;9.132;2023-03-12T10:23:11;97795.19;;;7.71;87.00
15694;BME280;7947;48.834;9.132;2023-03-12T10:26:21;97800.28;;;7.82;86.24
15694;BME280;7947;48.834;9.132;2023-03-12T10:29:29;97803.00;;;8.02;86.24
15694;BME280;7947;48.834;9.132;2023-03-12T10:32:38;97789.91;;;8.21;86.28
15694;BME280;7947;48.834;9.132;2023-03-12T10:35:42;97804.34;;;8.35;86.57
15694;BME280;7947;48.834;9.132;2023-03-12T10:38:45;97818.22;;;8.72;87.26
15694;BME280;7947;48.834;9.132;2023-03-12T10:41:50;97811.25;;;8.81;87.23
15694;BME280;7947;48.834;9.132;2023-03-12T10:44:57;97819.28;;;8.86;87.84
15694;BME280;7947;48.834;9.132;2023-03-12T10:48:02;97827.25;;;8.96;87.13
15694;BME280;7947;48.834;9.132;2023-03-12T10:51:07;97826.69;;;9.04;88.32
15694;BME280;7947;48.834;9.132;2023-03-12T10:54:20;97837.13;;;9.01;88.98
15694;BME280;7947;48.834;9.132;2023-03-12T10:57:38;97847.31;;;8.99;90.11
15694;BME280;7947;48.834;9.132;2023-03-12T11:00:53;97845.97;;;8.96;91.19
15694;BME280;7947;48.834;9.132;2023-03-12T11:04:07;97840.38;;;8.98;92.46
15694;BME280;7947;48.834;9.132;2023-03-12T11:07:21;97841.91;;;9.14;94.10
15694;BME280;7947;48.834;9.132;2023-03-12T11:10:38;97840.50;;;9.32;94.97
15694;BME280;7947;48.834;9.132;2023-03-12T11:13:43;97831.31;;;9.53;94.03
15694;BME280;7947;48.834;9.132;2023-03-12T11:16:47;97832.75;;;9.89;95.13
15694;BME280;7947;48.834;9.132;2023-03-12T11:19:50;97841.38;;;10.25;93.08
15694;BME280;7947;48.834;9.132;2023-03-12T11:22:53;97837.75;;;10.44;90.88
15694;BME280;7947;48.834;9.132;2023-03-12T11:25:58;97839.25;;;10.55;89.18
15694;BME280;7947;48.834;9.132;2023-03-12T11:29:08;97832.47;;;10.63;89.62
15694;BME280;7947;48.834;9.132;2023-03-12T11:32:16;97824.84;;;10.80;89.79
15694;BME280;7947;48.834;9.132;2023-03-12T11:35:31;97828.47;;;10.89;88.29
15694;BME280;7947;48.834;9.132;2023-03-12T11:38:42;97831.22;;;11.08;86.83
15694;BME280;7947;48.834;9.132;2023-03-12T11:42:04;97822.13;;;11.32;85.74
15694;BME280;7947;48.834;9.132;2023-03-12T11:45:19;97831.22;;;11.55;84.15
15694;BME280;7947;48.834;9.132;2023-03-12T11:48:33;97827.91;;;11.63;83.03
15694;BME280;7947;48.834;9.132;2023-03-12T11:51:45;97819.03;;;11.62;81.59
15694;BME280;7947;48.834;9.132;2023-03-12T11:55:18;97835.06;;;11.49;82.34
15694;BME280;7947;48.834;9.132;2023-03-12T11:58:32;97823.63;;;11.38;84.51
15694;BME280;7947;48.834;9.132;2023-03-12T12:01:54;97831.16;;;11.36;83.32
15694;BME280;7947;48.834;9.132;2023-03-12T12:05:12;97834.38;;;11.38;82.50
15694;BME280;7947;48.834;9.132;2023-03-12T12:08:33;97823.91;;;11.37;82.48
15694;BME280;7947;48.834;9.132;2023-03-12T12:11:48;97817.84;;;11.50;83.46
15694;BME280;7947;48.834;9.132;2023-03-12T12:15:05;97796.44;;;11.68;80.56
15694;BME280;7947;48.834;9.132;2023-03-12T12:18:27;97811.91;;;11.95;81.54
15694;BME280;7947;48.834;9.132;2023-03-12T12:21:44;97800.66;;;12.44;79.23
15694;BME280;7947;48.834;9.132;2023-03-12T12:25:12;97802.03;;;12.74;75.78
15694;BME280;7947;48.834;9.132;2023-03-12T12:28:28;97798.91;;;12.66;74.83
15694;BME280;7947;48.834;9.132;2023-03-12T12:31:37;97789.22;;;12.52;75.01
15694;BME280;7947;48.834;9.132;2023-03-12T12:35:04;97793.09;;;12.46;75.46
15694;BME280;7947;48.834;9.132;2023-03-12T12:38:12;97790.25;;;12.37;75.47
15694;BME280;7947;48.834;9.132;2023-03-12T12:41:17;97792.91;;;12.24;76.04
15694;BME280;7947;48.834;9.132;2023-03-12T12:44:24;97793.88;;;12.14;76.50
15694;BME280;7947;48.834;9.132;2023-03-12T12:47:36;97790.31;;;12.19;76.17
15694;BME280;7947;48.834;9.132;2023-03-12T12:50:43;97793.06;;;12.32;77.04
15694;BME280;7947;48.834;9.132;2023-03-12T12:53:51;97792.69;;;12.52;75.92
15694;BME280;7947;48.834;9.132;2023-03-12T12:57:01;97804.75;;;12.55;75.20
15694;BME280;7947;48.834;9.132;2023-03-12T13:00:20;97791.22;;;12.46;75.72
15694;BME280;7947;48.834;9.132;2023-03-12T13:03:25;97791.56;;;12.40;74.57
15694;BME280;7947;48.834;9.132;2023-03-12T13:06:52;97799.91;;;12.25;75.22
15694;BME280;7947;48.834;9.132;2023-03-12T13:09:56;97798.16;;;12.15;75.00
15694;BME280;7947;48.834;9.132;2023-03-12T13:13:03;97811.91;;;11.95;77.55
15694;BME280;7947;48.834;9.132;2023-03-12T13:16:20;97813.88;;;11.90;79.31
15694;BME280;7947;48.834;9.132;2023-03-12T13:19:29;97823.88;;;11.84;80.78
15694;BME280;7947;48.834;9.132;2023-03-12T13:22:56;97815.81;;;11.84;83.33
15694;BME280;7947;48.834;9.132;2023-03-12T13:26:05;97806.94;;;12.02;83.69
15694;BME280;7947;48.834;9.132;2023-03-12T13:29:18;97811.06;;;12.32;81.50
15694;BME280;7947;48.834;9.132;2023-03-12T13:36:07;97799.28;;;12.28;78.55
15694;BME280;7947;48.834;9.132;2023-03-12T13:39:28;97787.31;;;12.20;75.88
15694;BME280;7947;48.834;9.132;2023-03-12T13:42:38;97786.41;;;12.11;75.66
15694;BME280;7947;48.834;9.132;2023-03-12T13:45:55;97786.41;;;12.11;74.54
15694;BME280;7947;48.834;9.132;2023-03-12T13:49:04;97793.44;;;12.07;74.50
15694;BME280;7947;48.834;9.132;2023-03-12T13:52:23;97789.81;;;12.17;72.70
15694;BME280;7947;48.834;9.132;2023-03-12T13:55:29;97783.81;;;12.20;72.18
15694;BME280;7947;48.834;9.132;2023-03-12T13:58:39;97779.50;;;12.37;70.91
15694;BME280;7947;48.834;9.132;2023-03-12T14:01:47;97774.44;;;12.36;71.65
15694;BME280;7947;48.834;9.132;2023-03-12T14:04:50;97776.81;;;12.37;70.95
15694;BME280;7947;48.834;9.132;2023-03-12T14:08:00;97791.75;;;12.30;70.87
15694;BME280;7947;48.834;9.132;2023-03-12T14:11:18;97799.91;;;12.06;72.13
15694;BME280;7947;48.834;9.132;2023-03-12T14:14:52;97806.00;;;11.93;73.66
15694;BME280;7947;48.834;9.132;2023-03-12T14:18:04;97812.75;;;11.91;74.67
15694;BME280;7947;48.834;9.132;2023-03-12T14:21:14;97807.56;;;11.81;77.53
15694;BME280;7947;48.834;9.132;2023-03-12T14:24:23;97809.28;;;11.71;80.48
15694;BME280;7947;48.834;9.132;2023-03-12T14:27:30;97814.00;;;11.56;81.90
15694;BME280;7947;48.834;9.132;2023-03-12T14:30:43;97821.53;;;11.77;82.25
15694;BME280;7947;48.834;9.132;2023-03-12T14:33:54;97809.50;;;11.94;81.08
15694;BME280;7947;48.834;9.132;2023-03-12T14:37:00;97807.59;;;12.13;78.70
15694;BME280;7947;48.834;9.132;2023-03-12T14:40:07;97813.59;;;12.42;77.37
15694;BME280;7947;48.834;9.132;2023-03-12T14:43:24;97796.31;;;12.61;74.76
15694;BME280;7947;48.834;9.132;2023-03-12T14:46:27;97795.34;;;12.71;74.38
15694;BME280;7947;48.834;9.132;2023-03-12T14:49:31;97796.44;;;12.84;71.67
15694;BME280;7947;48.834;9.132;2023-03-12T14:52:33;97792.97;;;12.83;71.88
15694;BME280;7947;48.834;9.132;2023-03-12T14:55:36;97791.88;;;12.84;70.73
15694;BME280;7947;48.834;9.132;2023-03-12T14:58:43;97782.72;;;12.99;70.96
15694;BME280;7947;48.834;9.132;2023-03-12T15:01:47;97786.66;;;13.20;68.78
15694;BME280;7947;48.834;9.132;2023-03-12T15:04:52;97795.00;;;13.45;67.74
15694;BME280;7947;48.834;9.132;2023-03-12T15:08:00;97802.69;;;13.52;66.72
15694;BME280;7947;48.834;9.132;2023-03-12T15:11:03;97797.09;;;13.48;68.13
15694;BME280;7947;48.834;9.132;2023-03-12T15:14:11;97789.91;;;13.44;66.90
15694;BME280;7947;48.834;9.132;2023-03-12T15:17:16;97797.31;;;13.25;67.12
15694;BME280;7947;48.834;9.132;2023-03-12T15:20:20;97796.69;;;13.14;66.11
15694;BME280;7947;48.834;9.132;2023-03-12T15:23:27;97796.56;;;12.92;67.62
15694;BME280;7947;48.834;9.132;2023-03-12T15:26:31;97793.06;;;12.92;66.71
15694;BME280;7947;48.834;9.132;2023-03-12T15:29:40;97792.06;;;12.88;65.50
15694;BME280;7947;48.834;9.132;2023-03-12T15:33:02;97803.25;;;12.81;66.14
15694;BME280;7947;48.834;9.132;2023-03-12T15:36:17;97795.38;;;12.85;63.50
15694;BME280;7947;48.834;9.132;2023-03-12T15:39:24;97792.03;;;12.74;63.87
15694;BME280;7947;48.834;9.132;2023-03-12T15:42:28;97784.56;;;12.57;65.43
15694;BME280;7947;48.834;9.132;2023-03-12T15:45:36;97790.59;;;12.49;65.54
15694;BME280;7947;48.834;9.132;2023-03-12T15:48:40;97789.28;;;12.47;65.53
15694;BME280;7947;48.834;9.132;2023-03-12T15:52:00;97788.38;;;12.38;65.97
15694;BME280;7947;48.834;9.132;2023-03-12T15:55:19;97804.31;;;12.34;65.63
15694;BME280;7947;48.834;9.132;2023-03-12T15:58:25;97800.09;;;12.28;65.44
15694;BME280;7947;48.834;9.132;2023-03-12T16:01:43;97800.59;;;12.30;65.58
15694;BME280;7947;48.834;9.132;2023-03-12T16:04:45;97793.63;;;12.29;64.74
15694;BME280;7947;48.834;9.132;2023-03-12T16:07:48;97796.81;;;12.31;65.28
15694;BME280;7947;48.834;9.132;2023-03-12T16:10:51;97788.53;;;12.28;65.23
15694;BME280;7947;48.834;9.132;2023-03-12T16:14:00;97785.13;;;12.22;65.64
15694;BME280;7947;48.834;9.132;2023-03-12T16:17:09;97787.16;;;12.30;65.56
15694;BME280;7947;48.834;9.132;2023-03-12T16:20:14;97791.38;;;12.18;66.03
15694;BME280;7947;48.834;9.132;2023-03-12T16:23:18;97785.94;;;12.04;66.94
15694;BME280;7947;48.834;9.132;2023-03-12T16:26:21;97787.06;;;12.03;67.32
15694;BME280;7947;48.834;9.132;2023-03-12T16:29:28;97778.13;;;12.08;66.61
15694;BME280;7947;48.834;9.132;2023-03-12T16:32:34;97778.97;;;12.22;65.32
15694;BME280;7947;48.834;9.132;2023-03-12T16:35:37;97789.00;;;12.16;64.68
15694;BME280;7947;48.834;9.132;2023-03-12T16:38:40;97787.25;;;12.07;64.89
15694;BME280;7947;48.834;9.132;2023-03-12T16:41:42;97789.59;;;11.95;65.51
15694;BME280;7947;48.834;9.132;2023-03-12T16:44:45;97794.53;;;12.06;65.04
15694;BME280;7947;48.834;9.132;2023-03-12T16:47:53;97791.56;;;12.08;64.35
15694;BME280;7947;48.834;9.132;2023-03-12T16:50:56;97794.00;;;12.04;64.75
15694;BME280;7947;48.834;9.132;2023-03-12T16:53:59;97778.50;;;12.01;64.62
15694;BME280;7947;48.834;9.132;2023-03-12T16:57:15;97779.66;;;11.95;64.47
15694;BME280;7947;48.834;9.132;2023-03-12T17:00:26;97782.13;;;11.92;64.80